createdAt,value
2022-10-14T00:03:00.691Z,96.11
2022-10-14T00:08:00.558Z,95.15
2022-10-14T00:13:00.481Z,95.05
2022-10-14T00:18:00.291Z,94.85
2022-10-14T00:23:00.267Z,94.64
2022-10-14T00:28:00.235Z,95.05
2022-10-14T00:33:00.228Z,94.54
2022-10-14T00:38:00.329Z,95.20
2022-10-14T00:43:00.290Z,96.31
2022-10-14T00:48:00.213Z,96.52
2022-10-14T00:52:59.904Z,96.97
2022-10-14T00:57:59.953Z,96.87
2022-10-14T01:02:59.824Z,97.07
2022-10-14T01:08:03.182Z,97.28
2022-10-14T01:12:59.732Z,97.13
2022-10-14T01:18:00.119Z,96.87
2022-10-14T01:22:59.688Z,97.07
2022-10-14T01:27:59.581Z,97.03
2022-10-14T01:32:59.443Z,96.92
2022-10-14T01:37:59.554Z,96.83
2022-10-14T01:42:59.473Z,96.92
2022-10-14T01:47:59.416Z,96.83
2022-10-14T01:52:59.234Z,96.92
2022-10-14T01:57:59.218Z,96.83
2022-10-14T02:02:59.152Z,97.03
2022-10-14T02:07:59.287Z,97.03
2022-10-14T02:12:59.051Z,97.03
2022-10-14T02:17:59.085Z,97.03
2022-10-14T02:23:02.490Z,97.13
2022-10-14T02:27:58.888Z,97.33
2022-10-14T02:32:58.821Z,97.23
2022-10-14T02:37:58.780Z,97.33
2022-10-14T02:42:58.717Z,97.23
2022-10-14T02:47:58.827Z,97.03
2022-10-14T02:52:58.794Z,96.92
2022-10-14T02:57:58.598Z,96.92
2022-10-14T03:02:58.483Z,97.03
2022-10-14T03:07:58.460Z,97.33
2022-10-14T03:12:58.421Z,97.23
2022-10-14T03:17:58.350Z,97.03
2022-10-14T03:22:58.536Z,97.13
2022-10-14T03:27:58.406Z,96.92
2022-10-14T03:32:58.216Z,97.23
2022-10-14T03:37:58.146Z,97.03
2022-10-14T03:42:58.138Z,96.92
2022-10-14T03:47:58.076Z,97.03
2022-10-14T03:52:58.029Z,97.03
2022-10-14T03:57:57.900Z,96.92
2022-10-14T04:02:57.864Z,96.92
2022-10-14T04:07:57.790Z,96.92
2022-10-14T04:12:57.929Z,97.13
2022-10-14T04:17:57.833Z,97.03
2022-10-14T04:22:57.742Z,97.03
2022-10-14T04:27:57.601Z,96.92
2022-10-14T04:32:57.585Z,96.92
2022-10-14T04:37:57.495Z,97.33
2022-10-14T04:42:57.630Z,97.13
2022-10-14T04:47:57.605Z,97.13
2022-10-14T04:52:57.363Z,97.33
2022-10-14T04:57:57.351Z,97.23
2022-10-14T05:02:57.192Z,97.13
2022-10-14T05:07:57.149Z,97.13
2022-10-14T05:12:57.212Z,97.53
2022-10-14T05:17:57.072Z,97.94
2022-10-14T05:22:57.129Z,97.74
2022-10-14T05:27:57.087Z,97.84
2022-10-14T05:32:56.847Z,97.53
2022-10-14T05:37:59.571Z,97.64
2022-10-14T05:42:57.914Z,97.53
2022-10-14T05:47:56.897Z,97.64
2022-10-14T05:52:56.787Z,97.64
2022-10-14T05:57:56.798Z,97.74
2022-10-14T06:02:56.569Z,97.39
2022-10-14T06:07:56.472Z,97.19
2022-10-14T06:12:56.431Z,97.19
2022-10-14T06:17:56.389Z,97.19
2022-10-14T06:22:56.436Z,97.19
2022-10-14T06:27:56.371Z,97.19
2022-10-14T06:32:56.284Z,96.94
2022-10-14T06:37:56.197Z,96.63
2022-10-14T06:42:56.165Z,96.33
2022-10-14T06:47:56.018Z,96.23
2022-10-14T06:52:56.053Z,96.38
2022-10-14T06:57:55.950Z,96.18
2022-10-14T07:02:55.889Z,96.14
2022-10-14T07:07:55.833Z,95.87
2022-10-14T07:12:55.779Z,95.83
2022-10-14T07:17:55.722Z,95.63
2022-10-14T07:23:04.485Z,95.07
2022-10-14T07:27:55.585Z,94.87
2022-10-14T07:32:55.524Z,94.82
2022-10-14T07:37:55.624Z,94.87
2022-10-14T07:42:59.043Z,94.51
2022-10-14T07:47:55.496Z,94.46
2022-10-14T07:53:00.205Z,94.57
2022-10-14T07:57:56.299Z,94.26
2022-10-14T08:02:55.258Z,94.22
2022-10-14T08:07:55.189Z,94.06
2022-10-14T08:12:55.227Z,94.22
2022-10-14T08:17:55.141Z,93.81
2022-10-14T08:22:55.156Z,94.42
2022-10-14T08:27:54.956Z,94.26
2022-10-14T08:32:55.648Z,94.12
2022-10-14T08:37:54.863Z,93.30
2022-10-14T08:42:55.071Z,93.57
2022-10-14T08:47:55.845Z,93.00
2022-10-14T08:52:54.810Z,93.16
2022-10-14T08:57:54.972Z,92.55
2022-10-14T09:02:55.728Z,91.86
2022-10-14T09:07:54.658Z,91.46
2022-10-14T09:12:54.507Z,91.82
2022-10-14T09:17:55.691Z,91.51
2022-10-14T09:22:54.771Z,90.09
2022-10-14T09:27:54.381Z,90.50
2022-10-14T09:32:54.453Z,91.27
2022-10-14T09:37:54.194Z,89.91
2022-10-14T09:42:54.273Z,89.50
2022-10-14T09:47:55.305Z,89.70
2022-10-14T09:52:54.284Z,89.83
2022-10-14T09:57:55.047Z,87.60
2022-10-14T10:02:53.953Z,87.84
2022-10-14T10:07:54.076Z,88.10
2022-10-14T10:12:53.999Z,87.15
2022-10-14T10:17:54.856Z,86.75
2022-10-14T10:22:53.943Z,86.55
2022-10-14T10:27:54.887Z,85.74
2022-10-14T10:32:53.726Z,86.25
2022-10-14T10:37:53.537Z,87.05
2022-10-14T10:42:53.501Z,87.15
2022-10-14T10:47:53.455Z,87.10
2022-10-14T10:52:53.555Z,86.90
2022-10-14T10:57:54.441Z,86.95
2022-10-14T11:02:53.435Z,86.55
2022-10-14T11:07:53.464Z,86.71
2022-10-14T11:12:54.452Z,85.30
2022-10-14T11:17:53.357Z,86.55
2022-10-14T11:22:53.212Z,87.10
2022-10-14T11:27:54.301Z,86.35
2022-10-14T11:32:53.014Z,86.55
2022-10-14T11:37:52.922Z,85.80
2022-10-14T11:42:53.162Z,85.54
2022-10-14T11:47:52.953Z,85.70
2022-10-14T11:52:53.384Z,85.70
2022-10-14T11:57:52.662Z,86.57
2022-10-14T12:02:52.818Z,85.36
2022-10-14T12:07:52.549Z,85.66
2022-10-14T12:12:52.486Z,86.95
2022-10-14T12:17:52.499Z,88.81
2022-10-14T12:22:57.216Z,90.37
2022-10-14T12:27:52.352Z,91.18
2022-10-14T12:33:02.157Z,90.94
2022-10-14T12:37:52.495Z,91.78
2022-10-14T12:42:52.155Z,91.14
2022-10-14T12:47:52.748Z,92.14
2022-10-14T12:52:52.049Z,91.74
2022-10-14T12:57:51.991Z,92.69
2022-10-14T13:02:55.375Z,92.49
2022-10-14T13:07:53.143Z,92.80
2022-10-14T13:12:51.846Z,92.90
2022-10-14T13:19:38.244Z,93.29
2022-10-14T13:24:38.275Z,93.59
2022-10-14T13:29:38.341Z,93.90
2022-10-14T13:34:38.769Z,93.35
2022-10-14T13:39:40.623Z,93.04
2022-10-14T13:44:38.253Z,93.65
2022-10-14T13:49:38.539Z,93.90
2022-10-14T13:54:37.947Z,93.79
2022-10-14T13:59:44.039Z,94.00
2022-10-14T14:04:38.849Z,94.00
2022-10-14T14:09:37.738Z,93.90
2022-10-14T14:14:37.800Z,93.79
2022-10-14T14:19:59.181Z,94.30
2022-10-14T14:25:07.657Z,94.50
2022-10-14T14:29:39.173Z,94.60
2022-10-14T14:34:38.278Z,94.40
2022-10-14T14:39:37.814Z,94.40
2022-10-14T14:44:41.117Z,94.60
2022-10-14T14:49:37.462Z,94.65
2022-10-14T14:54:37.196Z,94.71
2022-10-14T14:59:37.155Z,94.50
2022-10-14T15:04:37.113Z,94.50
2022-10-14T15:09:37.213Z,94.30
2022-10-14T15:14:37.101Z,94.30
2022-10-14T15:19:38.165Z,94.81
2022-10-14T15:24:37.050Z,94.81
2022-10-14T15:29:36.863Z,95.06
2022-10-14T15:34:36.933Z,95.21
2022-10-14T15:39:36.934Z,95.21
2022-10-14T15:44:36.843Z,94.91
2022-10-14T15:49:40.247Z,94.91
2022-10-14T15:54:36.557Z,94.81
2022-10-14T15:59:36.756Z,95.01
2022-10-14T16:04:39.240Z,94.81
2022-10-14T16:09:37.388Z,95.21
2022-10-14T16:52:41.345Z,94.95
2022-10-14T16:57:41.179Z,95.06
2022-10-14T17:02:41.214Z,95.15
2022-10-14T17:07:41.024Z,95.40
2022-10-14T17:12:41.097Z,95.71
2022-10-14T17:17:41.938Z,95.50
2022-10-14T17:22:40.875Z,95.40
2022-10-14T17:27:40.835Z,95.40
2022-10-14T17:32:40.807Z,95.25
2022-10-14T17:37:40.789Z,95.95
2022-10-14T17:42:40.696Z,95.86
2022-10-14T17:47:40.642Z,96.15
2022-10-14T17:52:40.613Z,96.06
2022-10-14T17:57:40.535Z,95.90
2022-10-14T18:02:40.482Z,95.90
2022-10-14T18:07:40.362Z,95.79
2022-10-14T18:12:40.309Z,95.94
2022-10-14T18:17:40.240Z,95.84
2022-10-14T18:22:40.296Z,96.25
2022-10-14T18:27:40.215Z,96.45
2022-10-14T18:32:40.332Z,96.55
2022-10-14T18:37:40.135Z,96.55
2022-10-14T18:42:40.001Z,96.86
2022-10-14T18:47:39.895Z,96.66
2022-10-14T18:52:39.895Z,96.75
2022-10-14T18:57:39.834Z,96.55
2022-10-14T19:02:39.743Z,96.35
2022-10-14T19:07:39.790Z,96.30
2022-10-14T19:12:39.710Z,96.50
2022-10-14T19:17:39.663Z,96.50
2022-10-14T19:22:39.579Z,96.70
2022-10-14T19:27:39.493Z,97.00
2022-10-14T19:32:39.439Z,96.90
2022-10-14T19:37:39.364Z,97.00
2022-10-14T19:42:39.318Z,96.90
2022-10-14T19:47:39.365Z,97.61
2022-10-14T19:52:39.275Z,97.41
2022-10-14T19:57:39.133Z,97.31
2022-10-14T20:02:39.187Z,97.00
2022-10-14T20:07:39.168Z,96.90
2022-10-14T20:12:39.007Z,96.80
2022-10-14T20:17:38.949Z,97.15
2022-10-14T20:22:38.894Z,97.00
2022-10-14T20:27:38.832Z,96.84
2022-10-14T20:32:38.874Z,96.75
2022-10-14T20:37:38.855Z,96.75
2022-10-14T20:42:38.770Z,97.05
2022-10-14T20:47:38.732Z,97.15
2022-10-14T20:52:38.612Z,97.05
2022-10-14T20:57:38.540Z,96.84
2022-10-14T21:02:38.587Z,97.05
2022-10-14T21:07:38.439Z,96.95
2022-10-14T21:12:38.535Z,97.09
2022-10-14T21:17:38.431Z,97.20
2022-10-14T21:22:38.346Z,97.30
2022-10-14T21:27:38.338Z,97.35
2022-10-14T21:32:39.227Z,97.45
2022-10-14T21:37:38.050Z,97.35
2022-10-14T21:42:38.002Z,97.15
2022-10-14T21:47:41.417Z,97.05
2022-10-14T21:52:37.868Z,97.05
2022-10-14T21:57:37.880Z,96.95
2022-10-14T22:02:37.923Z,97.05
2022-10-14T22:07:37.882Z,97.25
2022-10-14T22:12:37.667Z,96.90
2022-10-14T22:17:46.480Z,96.90
2022-10-14T22:22:37.493Z,97.11
2022-10-14T22:27:37.486Z,97.35
2022-10-14T22:32:37.436Z,97.51
2022-10-14T22:37:37.435Z,97.41
2022-10-14T22:42:42.064Z,97.35
2022-10-14T22:47:37.355Z,97.61
2022-10-14T22:52:37.364Z,97.31
2022-10-14T22:57:37.120Z,97.31
2022-10-14T23:02:37.110Z,97.20
2022-10-14T23:07:36.997Z,97.11
2022-10-14T23:12:36.962Z,96.95
2022-10-14T23:17:36.952Z,96.95
2022-10-14T23:22:36.891Z,96.95
2022-10-14T23:27:37.015Z,96.79
2022-10-14T23:32:36.887Z,96.99
2022-10-14T23:37:36.674Z,96.89
2022-10-14T23:42:36.646Z,96.94
2022-10-14T23:47:36.562Z,96.94
2022-10-14T23:52:36.505Z,97.14
2022-10-14T23:57:36.608Z,96.94
